Time;durP1;ratioP1;P1;durP2;ratioP2;P2;SDS_P1;SDS_P2;PMS_P1;PMS_P2;Temp;Humidity;BMP_temperature;BMP_pressure;BME280_temperature;BME280_humidity;BME280_pressure;Samples;Min_cycle;Max_cycle;Signal;HPM_P1;HPM_P2
2021/07/29 00:02:25;;;;;;;7.47;2.92;;;;;;;13.64;92.63;101015.66;4979930;28;20153;-69
2021/07/29 00:04:53;;;;;;;11.00;3.33;;;;;;;13.62;95.01;101009.47;4977865;28;20049;-70
2021/07/29 00:07:21;;;;;;;8.18;3.10;;;;;;;13.57;93.21;101016.84;4981023;28;20149;-70
2021/07/29 00:09:49;;;;;;;6.45;2.30;;;;;;;13.57;94.50;101011.47;4978542;28;20116;-70
2021/07/29 00:12:16;;;;;;;7.13;2.75;;;;;;;13.58;93.67;100997.16;4977000;28;20506;-71
2021/07/29 00:14:49;;;;;;;15.10;3.33;;;;;;;13.62;93.56;100991.59;4980012;28;20519;-71
2021/07/29 00:17:29;;;;;;;5.88;2.90;;;;;;;13.62;93.49;100990.72;4976705;28;20300;-71
2021/07/29 00:19:57;;;;;;;12.07;3.28;;;;;;;13.61;94.46;100992.53;4980329;28;20113;-71
2021/07/29 00:22:24;;;;;;;18.23;4.15;;;;;;;13.70;95.68;100985.03;4979105;28;20066;-73
2021/07/29 00:24:52;;;;;;;11.23;3.40;;;;;;;13.71;95.50;100984.97;4978611;28;20070;-75
2021/07/29 00:27:20;;;;;;;7.30;3.45;;;;;;;13.77;96.35;100990.09;4983316;28;20062;-74
2021/07/29 00:29:48;;;;;;;12.15;4.88;;;;;;;13.80;97.21;100973.84;4978588;28;20474;-75
2021/07/29 00:32:15;;;;;;;12.45;3.80;;;;;;;13.85;96.11;100981.69;4980039;28;20124;-74
2021/07/29 00:34:45;;;;;;;16.00;4.10;;;;;;;13.98;96.92;100980.22;4975685;28;20062;-75
2021/07/29 00:37:12;;;;;;;15.00;4.75;;;;;;;14.12;96.31;100973.38;4978704;28;20066;-76
2021/07/29 00:39:40;;;;;;;15.57;4.05;;;;;;;14.29;96.31;100967.25;4980560;28;20067;-74
2021/07/29 00:42:09;;;;;;;16.00;4.75;;;;;;;14.38;96.57;100966.81;4977654;28;20527;-75
2021/07/29 00:44:37;;;;;;;19.45;4.82;;;;;;;14.43;96.53;100971.97;4979333;28;20089;-74
2021/07/29 00:47:07;;;;;;;19.92;4.80;;;;;;;14.44;96.28;100973.69;4980427;28;20073;-75
2021/07/29 00:49:35;;;;;;;15.88;4.50;;;;;;;14.47;96.34;100970.88;4978026;28;20389;-74
2021/07/29 00:52:05;;;;;;;14.77;4.40;;;;;;;14.47;96.65;100966.41;4980654;28;20062;-74
2021/07/29 00:54:33;;;;;;;17.05;4.82;;;;;;;14.51;96.50;100962.63;4975522;28;20113;-75
2021/07/29 00:57:03;;;;;;;25.05;5.55;;;;;;;14.52;95.87;100961.69;4982535;28;20528;-74
2021/07/29 00:59:31;;;;;;;18.75;4.70;;;;;;;14.57;96.23;100956.97;4980614;28;20062;-74
2021/07/29 01:01:58;;;;;;;15.50;4.50;;;;;;;14.68;95.43;100953.81;4978768;28;20113;-74
2021/07/29 01:04:27;;;;;;;14.32;5.13;;;;;;;14.68;95.86;100966.38;4982205;28;20066;-75
2021/07/29 01:06:55;;;;;;;19.50;5.25;;;;;;;14.71;95.93;100959.03;4979442;28;20043;-74
2021/07/29 01:09:24;;;;;;;20.17;4.88;;;;;;;14.73;95.87;100959.84;4979875;28;20458;-74
2021/07/29 01:11:52;;;;;;;20.30;5.30;;;;;;;14.76;95.05;100969.53;4979426;28;20062;-74
2021/07/29 01:14:20;;;;;;;14.95;3.92;;;;;;;14.80;95.26;100959.56;4978204;28;20473;-74
2021/07/29 01:16:50;;;;;;;26.00;5.68;;;;;;;14.79;94.80;100961.34;4982891;28;20105;-74
2021/07/29 01:19:22;;;;;;;19.77;5.20;;;;;;;14.80;95.21;100976.53;4978359;28;20177;-74
2021/07/29 01:21:53;;;;;;;;;;;;;;;14.82;95.39;100966.56;4981938;28;20152;-73
2021/07/29 01:24:22;;;;;;;15.52;4.28;;;;;;;14.74;95.38;100969.66;4979000;28;19929;-73
2021/07/29 01:26:50;;;;;;;16.33;4.78;;;;;;;14.76;95.47;100966.84;4982658;28;20050;-73
2021/07/29 01:29:17;;;;;;;16.95;4.22;;;;;;;14.76;96.19;100964.16;4982422;28;20050;-73
2021/07/29 01:31:45;;;;;;;13.55;4.25;;;;;;;14.67;95.97;100975.38;4980273;28;20094;-73
2021/07/29 01:34:14;;;;;;;18.67;4.63;;;;;;;14.63;96.13;100971.09;4984161;28;20049;-73
2021/07/29 01:36:41;;;;;;;13.68;3.97;;;;;;;14.54;91.54;100985.75;4979338;28;20062;-73
2021/07/29 01:39:10;;;;;;;11.68;3.33;;;;;;;14.38;87.46;100985.59;4983077;28;20418;-73
2021/07/29 01:41:38;;;;;;;11.38;2.67;;;;;;;14.25;87.60;100974.56;4984446;28;20145;-72
2021/07/29 01:44:06;;;;;;;15.07;3.05;;;;;;;14.10;86.65;100981.50;4982820;28;20073;-72
2021/07/29 01:46:34;;;;;;;13.75;2.97;;;;;;;14.04;89.03;100991.63;4976807;28;20590;-73
2021/07/29 01:49:02;;;;;;;12.65;3.40;;;;;;;14.07;89.97;100981.63;4982077;28;20488;-73
2021/07/29 01:51:30;;;;;;;17.60;4.85;;;;;;;13.94;89.03;100981.28;4981854;28;20066;-74
2021/07/29 01:53:57;;;;;;;8.98;2.50;;;;;;;13.91;89.01;100976.06;4984146;28;20337;-74
2021/07/29 01:56:26;;;;;;;10.90;2.60;;;;;;;13.86;89.51;100980.75;4980970;28;20055;-75
2021/07/29 01:58:54;;;;;;;8.90;2.80;;;;;;;13.77;89.29;100983.81;4983010;28;20081;-75
2021/07/29 02:01:24;;;;;;;9.40;2.55;;;;;;;13.66;89.13;100986.13;4981002;28;20058;-75
2021/07/29 02:03:52;;;;;;;6.22;2.20;;;;;;;13.57;88.26;100984.66;4981368;28;20160;-74
2021/07/29 02:06:20;;;;;;;7.93;2.60;;;;;;;13.44;89.15;100989.69;4981465;28;20066;-74
2021/07/29 02:08:50;;;;;;;7.72;2.22;;;;;;;13.52;87.63;100986.66;4982613;28;20090;-75
2021/07/29 02:11:18;;;;;;;10.30;3.08;;;;;;;13.45;87.47;100989.63;4984689;28;20409;-74
2021/07/29 02:13:47;;;;;;;10.40;2.55;;;;;;;13.37;88.15;100991.75;4981291;28;20120;-74
2021/07/29 02:16:15;;;;;;;7.95;2.30;;;;;;;13.27;87.73;100993.88;4981525;28;20062;-74
2021/07/29 02:18:42;;;;;;;9.23;2.47;;;;;;;13.21;88.53;100993.25;4981221;28;20082;-73
2021/07/29 02:21:11;;;;;;;4.53;2.25;;;;;;;13.16;88.80;100992.56;4980525;28;20069;-73
2021/07/29 02:23:39;;;;;;;8.13;2.30;;;;;;;13.11;88.33;100991.91;4981782;28;20579;-74
2021/07/29 02:26:07;;;;;;;6.82;2.40;;;;;;;13.07;88.25;100997.38;4979150;28;20377;-73
2021/07/29 02:28:34;;;;;;;5.43;2.42;;;;;;;13.00;89.33;100995.88;4982360;28;20790;-74
2021/07/29 02:31:06;;;;;;;7.10;2.50;;;;;;;12.92;88.26;101000.66;4982052;28;20042;-73
2021/07/29 02:33:34;;;;;;;7.32;2.53;;;;;;;12.83;88.88;100995.66;4980483;28;20057;-74
2021/07/29 02:36:02;;;;;;;7.82;2.53;;;;;;;12.80;90.34;101002.00;4984080;28;20113;-73
2021/07/29 02:38:31;;;;;;;5.82;2.55;;;;;;;12.76;90.86;100996.84;4982501;28;20105;-72
2021/07/29 02:40:58;;;;;;;6.70;2.45;;;;;;;12.71;90.38;101000.56;4981657;28;20354;-73
2021/07/29 02:43:26;;;;;;;5.57;2.40;;;;;;;12.68;92.45;101006.06;4980936;28;20066;-69
2021/07/29 02:45:54;;;;;;;6.47;2.97;;;;;;;12.62;91.76;101000.94;4981763;28;20524;-69
2021/07/29 02:48:23;;;;;;;4.78;2.40;;;;;;;12.54;92.11;101007.50;4982078;28;20062;-69
2021/07/29 02:50:54;;;;;;;6.50;2.38;;;;;;;12.47;93.19;101006.84;4980142;28;20563;-69
2021/07/29 02:53:24;;;;;;;5.57;2.28;;;;;;;12.45;92.81;101014.06;4979947;28;20061;-69
2021/07/29 02:55:57;;;;;;;4.82;2.40;;;;;;;12.31;93.17;101011.91;4982396;28;20058;-69
2021/07/29 02:58:25;;;;;;;3.30;2.22;;;;;;;12.35;93.11;101016.22;4979325;28;20161;-69
2021/07/29 03:00:53;;;;;;;9.32;3.35;;;;;;;12.30;93.44;101016.38;4981826;28;20073;-69
2021/07/29 03:03:21;;;;;;;6.53;2.75;;;;;;;12.28;94.35;101012.03;4977946;28;20488;-69
2021/07/29 03:05:50;;;;;;;8.13;3.00;;;;;;;12.27;94.34;101013.78;4981549;28;20064;-68
2021/07/29 03:08:18;;;;;;;10.95;2.65;;;;;;;12.27;94.63;101008.44;4983011;28;20062;-68
2021/07/29 03:10:47;;;;;;;11.20;2.80;;;;;;;12.26;94.49;101014.75;4979548;28;20094;-69
2021/07/29 03:13:15;;;;;;;8.88;3.20;;;;;;;12.26;93.83;101012.06;4979626;28;20062;-69
2021/07/29 03:15:43;;;;;;;9.88;2.97;;;;;;;12.30;94.13;101010.16;4980929;28;20066;-68
2021/07/29 03:18:10;;;;;;;7.32;2.50;;;;;;;12.32;94.39;101013.63;4981787;28;20397;-68
2021/07/29 03:20:41;;;;;;;8.90;2.95;;;;;;;12.37;94.93;101008.13;4979561;28;20066;-69
2021/07/29 03:23:10;;;;;;;7.18;2.50;;;;;;;12.39;95.42;101009.81;4978456;28;20062;-68
2021/07/29 03:25:38;;;;;;;9.50;2.95;;;;;;;12.42;94.20;101008.84;4981636;28;20109;-68
2021/07/29 03:28:06;;;;;;;6.68;2.80;;;;;;;12.45;94.75;101009.59;4979165;28;20061;-69
2021/07/29 03:30:34;;;;;;;6.85;2.95;;;;;;;12.50;95.50;101021.00;4981988;28;20370;-68
2021/07/29 03:33:02;;;;;;;7.05;3.22;;;;;;;12.56;94.89;101019.03;4981719;28;20113;-68
2021/07/29 03:35:30;;;;;;;14.18;3.50;;;;;;;12.60;95.49;101026.88;4978681;28;20073;-68
2021/07/29 03:37:57;;;;;;;8.10;3.20;;;;;;;12.61;95.49;101023.25;4981413;28;20136;-68
2021/07/29 03:40:27;;;;;;;9.38;3.00;;;;;;;12.70;95.45;101017.56;4979963;28;20062;-68
2021/07/29 03:42:56;;;;;;;9.95;3.10;;;;;;;12.75;96.09;101021.88;4979901;28;20090;-68
2021/07/29 03:45:23;;;;;;;8.68;2.90;;;;;;;12.80;96.10;101022.56;4979016;28;20105;-68
2021/07/29 03:47:51;;;;;;;10.50;3.60;;;;;;;12.83;96.77;101025.13;4977365;28;20365;-68
2021/07/29 03:50:19;;;;;;;10.77;3.83;;;;;;;12.87;96.93;101016.03;4979721;28;20397;-68
2021/07/29 03:52:47;;;;;;;16.35;3.75;;;;;;;12.92;96.67;101014.03;4979783;28;20062;-68
2021/07/29 03:55:15;;;;;;;15.68;3.75;;;;;;;12.88;97.06;101013.28;4979781;28;20543;-68
2021/07/29 03:57:44;;;;;;;10.35;3.17;;;;;;;12.89;96.59;101022.22;4978189;28;20062;-67
2021/07/29 04:00:13;;;;;;;13.25;3.30;;;;;;;12.91;95.68;101023.03;4977840;28;20442;-68
2021/07/29 04:02:41;;;;;;;8.20;3.38;;;;;;;13.09;94.99;101024.09;4980745;28;20101;-68
2021/07/29 04:05:10;;;;;;;13.90;3.90;;;;;;;13.25;93.71;101019.88;4976915;28;20062;-68
2021/07/29 04:07:38;;;;;;;11.38;3.83;;;;;;;13.33;93.29;101016.94;4978423;28;20335;-68
2021/07/29 04:10:07;;;;;;;11.82;3.08;;;;;;;13.38;92.90;101030.13;4983039;28;20069;-71
2021/07/29 04:12:34;;;;;;;12.52;3.60;;;;;;;13.43;92.66;101028.13;4979361;28;20372;-71
2021/07/29 04:15:05;;;;;;;7.93;3.00;;;;;;;13.49;92.71;101030.56;4980849;28;20645;-70
2021/07/29 04:17:33;;;;;;;11.30;3.65;;;;;;;13.53;91.68;101024.13;4977436;28;20334;-71
2021/07/29 04:20:01;;;;;;;8.88;2.78;;;;;;;13.54;91.66;101033.94;4980406;28;20058;-71
2021/07/29 04:22:29;;;;;;;10.13;2.95;;;;;;;13.67;90.63;101025.38;4979719;28;20066;-70
2021/07/29 04:24:59;;;;;;;9.82;3.00;;;;;;;13.64;91.40;101040.66;4979459;28;20066;-71
2021/07/29 04:27:27;;;;;;;9.23;3.35;;;;;;;13.63;90.90;101048.75;4978637;28;20069;-71
2021/07/29 04:29:55;;;;;;;18.92;4.18;;;;;;;13.66;90.09;101037.06;4978565;28;20356;-71
2021/07/29 04:32:24;;;;;;;9.10;3.50;;;;;;;13.66;89.39;101037.91;4979904;28;20058;-71
2021/07/29 04:34:52;;;;;;;8.88;3.10;;;;;;;13.67;90.26;101039.66;4980431;28;20058;-71
2021/07/29 04:37:20;;;;;;;9.30;2.70;;;;;;;13.76;89.70;101035.72;4979483;28;20074;-71
2021/07/29 04:39:48;;;;;;;8.73;2.78;;;;;;;13.81;88.89;101041.78;4980238;28;20149;-71
2021/07/29 04:42:16;;;;;;;9.00;3.00;;;;;;;13.83;89.62;101037.22;4976107;28;20117;-72
2021/07/29 04:44:43;;;;;;;14.93;3.63;;;;;;;13.89;91.47;101039.63;4980240;28;20414;-71
2021/07/29 04:47:16;;;;;;;14.13;4.47;;;;;;;13.85;92.75;101042.50;4980674;28;20523;-70
2021/07/29 04:49:45;;;;;;;14.35;4.38;;;;;;;13.84;93.89;101036.25;4979013;28;20430;-70
2021/07/29 04:52:12;;;;;;;15.68;5.03;;;;;;;13.90;94.14;101041.38;4981004;28;20106;-67
2021/07/29 04:54:40;;;;;;;14.88;4.00;;;;;;;13.95;94.54;101028.63;4976974;28;20149;-67
2021/07/29 04:57:08;;;;;;;15.85;5.00;;;;;;;13.96;94.80;101027.72;4979026;28;20185;-67
2021/07/29 04:59:39;;;;;;;15.27;4.60;;;;;;;14.01;94.76;101040.91;4979343;28;20046;-67
2021/07/29 05:02:07;;;;;;;12.23;3.88;;;;;;;14.06;94.86;101032.66;4982515;28;20066;-68
2021/07/29 05:04:35;;;;;;;13.38;4.47;;;;;;;14.18;94.51;101032.13;4988238;28;20058;-67
2021/07/29 05:07:05;;;;;;;15.18;4.10;;;;;;;14.28;93.79;101041.50;4980880;28;20062;-67
2021/07/29 05:09:33;;;;;;;12.70;3.67;;;;;;;14.38;93.35;101032.09;4985250;28;20132;-68
2021/07/29 05:12:04;;;;;;;16.45;4.47;;;;;;;14.43;93.12;101037.28;4982698;28;20062;-67
2021/07/29 05:14:32;;;;;;;16.35;4.10;;;;;;;14.51;92.22;101040.47;4980416;28;20062;-68
2021/07/29 05:17:01;;;;;;;14.52;3.95;;;;;;;14.51;91.34;101051.22;4984770;28;20054;-68
2021/07/29 05:19:30;;;;;;;14.45;4.00;;;;;;;14.54;91.41;101044.81;4981224;28;20072;-68
2021/07/29 05:21:57;;;;;;;15.07;3.88;;;;;;;14.68;90.53;101037.06;4983379;28;20324;-68
2021/07/29 05:24:27;;;;;;;16.27;4.72;;;;;;;14.81;89.62;101049.91;4981409;28;20377;-68
2021/07/29 05:26:55;;;;;;;14.30;4.15;;;;;;;14.90;90.04;101044.13;4980424;28;20058;-68
2021/07/29 05:29:23;;;;;;;17.70;4.30;;;;;;;14.73;90.37;101051.16;4984589;28;20101;-68
2021/07/29 05:31:51;;;;;;;22.10;4.88;;;;;;;14.78;90.87;101050.94;4982299;28;20084;-67
2021/07/29 05:34:19;;;;;;;15.32;4.15;;;;;;;15.03;90.02;101050.66;4985299;28;20068;-68
2021/07/29 05:36:46;;;;;;;9.75;3.72;;;;;;;15.15;89.55;101051.88;4983127;28;20061;-73
2021/07/29 05:39:14;;;;;;;13.30;4.57;;;;;;;15.03;89.88;101061.41;4981526;28;20109;-72
2021/07/29 05:41:43;;;;;;;18.00;4.32;;;;;;;15.05;90.31;101062.22;4983017;28;20077;-72
2021/07/29 05:44:12;;;;;;;20.52;5.20;;;;;;;15.25;88.73;101058.56;4980155;28;20444;-72
2021/07/29 05:46:40;;;;;;;16.15;3.90;;;;;;;15.44;88.73;101061.25;4983765;28;20148;-68
2021/07/29 05:49:08;;;;;;;16.30;4.25;;;;;;;15.65;87.69;101064.69;4983006;28;20066;-68
2021/07/29 05:51:36;;;;;;;12.57;4.78;;;;;;;15.84;85.50;101056.59;4981862;28;20157;-68
2021/07/29 05:54:03;;;;;;;13.15;3.40;;;;;;;15.69;86.49;101055.50;4983568;28;20062;-73
2021/07/29 05:56:32;;;;;;;12.43;4.88;;;;;;;16.09;85.05;101059.84;4980137;28;20243;-73
2021/07/29 05:59:01;;;;;;;17.75;3.95;;;;;;;16.21;84.44;101059.22;4982670;28;20156;-73
2021/07/29 06:01:28;;;;;;;17.05;4.07;;;;;;;16.12;84.52;101067.75;4980728;28;20143;-73
2021/07/29 06:03:56;;;;;;;14.55;4.07;;;;;;;16.32;85.01;101055.97;4983589;28;20065;-68
2021/07/29 06:06:24;;;;;;;15.02;4.38;;;;;;;16.60;83.43;101066.13;4983081;28;20062;-68
2021/07/29 06:08:53;;;;;;;13.65;4.22;;;;;;;16.73;83.20;101066.34;4979387;28;20066;-68
2021/07/29 06:11:21;;;;;;;14.80;4.20;;;;;;;16.80;81.09;101068.63;4980867;28;20066;-68
2021/07/29 06:13:49;;;;;;;15.13;3.80;;;;;;;17.11;81.61;101074.16;4981395;28;20062;-68
2021/07/29 06:16:18;;;;;;;14.55;3.80;;;;;;;17.35;77.92;101056.63;4979427;28;20073;-68
2021/07/29 06:18:53;;;;;;;13.63;3.45;;;;;;;17.27;76.50;101072.38;4983287;28;20054;-68
2021/07/29 06:21:21;;;;;;;12.30;3.53;;;;;;;17.24;74.81;101069.84;4978382;28;20472;-69
2021/07/29 06:23:48;;;;;;;11.20;3.25;;;;;;;17.47;75.54;101068.53;4980930;28;20484;-70
2021/07/29 06:26:16;;;;;;;8.30;2.97;;;;;;;17.13;73.35;101065.06;4979571;28;20065;-70
2021/07/29 06:28:44;;;;;;;16.05;3.65;;;;;;;17.44;72.86;101071.41;4978755;28;20423;-68
2021/07/29 06:31:12;;;;;;;16.48;3.40;;;;;;;17.58;72.37;101070.59;4981325;28;20046;-69
2021/07/29 06:33:41;;;;;;;9.95;3.03;;;;;;;17.30;73.00;101077.59;4977346;28;20070;-74
2021/07/29 06:36:09;;;;;;;11.57;3.13;;;;;;;17.41;71.67;101085.06;4980695;28;20066;-74
2021/07/29 06:38:40;;;;;;;11.60;3.30;;;;;;;17.78;70.71;101084.78;4978711;28;20062;-75
2021/07/29 06:41:08;;;;;;;7.60;2.97;;;;;;;17.79;71.08;101086.50;4980626;28;20066;-74
2021/07/29 06:43:36;;;;;;;11.18;3.33;;;;;;;17.35;71.38;101096.22;4980165;28;20170;-74
2021/07/29 06:46:05;;;;;;;11.60;2.90;;;;;;;17.10;72.14;101089.47;4981486;28;20117;-74
2021/07/29 06:48:33;;;;;;;8.63;3.20;;;;;;;17.06;72.71;101098.72;4983183;28;20113;-69
2021/07/29 06:51:07;;;;;;;14.23;3.47;;;;;;;16.80;73.88;101090.19;4978747;28;20053;-68
2021/07/29 06:53:35;;;;;;;;;;;;;;;16.73;73.88;101099.53;4980888;28;20121;-69
2021/07/29 06:56:04;;;;;;;13.02;3.47;;;;;;;16.61;74.12;101097.50;4978787;28;20293;-74
2021/07/29 06:58:31;;;;;;;12.93;3.97;;;;;;;16.36;74.94;101106.91;4978227;28;20523;-74
2021/07/29 07:01:02;;;;;;;14.38;3.67;;;;;;;16.40;76.24;101112.97;4982986;28;20092;-73
2021/07/29 07:03:30;;;;;;;11.82;3.20;;;;;;;16.24;75.58;101110.19;4980224;28;20070;-74
2021/07/29 07:06:00;;;;;;;10.98;2.90;;;;;;;16.44;75.49;101120.81;4981597;28;20053;-69
2021/07/29 07:08:29;;;;;;;16.00;3.83;;;;;;;16.55;74.61;101124.75;4978988;28;20128;-74
2021/07/29 07:10:57;;;;;;;12.80;2.92;;;;;;;17.15;71.19;101114.34;4978585;28;20066;-69
2021/07/29 07:13:24;;;;;;;12.68;4.05;;;;;;;17.33;71.16;101119.69;4982555;28;20066;-69
2021/07/29 07:15:53;;;;;;;11.75;3.80;;;;;;;17.74;68.96;101117.34;4982218;28;20066;-69
2021/07/29 07:18:20;;;;;;;11.55;3.95;;;;;;;18.20;67.53;101119.22;4980946;28;20058;-70
2021/07/29 07:20:48;;;;;;;10.63;3.47;;;;;;;18.46;66.79;101117.63;4978202;28;20274;-69
2021/07/29 07:23:16;;;;;;;13.13;3.42;;;;;;;18.60;66.49;101122.19;4977048;28;20063;-69
2021/07/29 07:25:45;;;;;;;12.25;2.97;;;;;;;18.54;65.50;101129.78;4979462;28;20054;-69
2021/07/29 07:28:13;;;;;;;8.98;3.15;;;;;;;18.57;66.33;101130.47;4978593;28;20372;-74
2021/07/29 07:30:41;;;;;;;9.38;2.97;;;;;;;18.30;65.63;101138.41;4980197;28;20062;-74
2021/07/29 07:33:09;;;;;;;12.00;3.25;;;;;;;18.21;65.42;101147.94;4979270;28;20068;-69
2021/07/29 07:35:37;;;;;;;8.93;2.80;;;;;;;18.61;63.98;101136.56;4980501;28;20069;-70
2021/07/29 07:38:05;;;;;;;8.95;2.97;;;;;;;19.30;62.80;101145.78;4981249;28;20069;-69
2021/07/29 07:40:33;;;;;;;6.68;2.45;;;;;;;19.04;62.42;101137.50;4977406;28;20057;-69
2021/07/29 07:43:02;;;;;;;9.63;3.00;;;;;;;19.09;61.75;101141.78;4980173;28;20065;-69
2021/07/29 07:45:30;;;;;;;6.68;2.45;;;;;;;18.92;62.99;101140.97;4980683;28;20116;-74
2021/07/29 07:47:58;;;;;;;12.50;3.30;;;;;;;19.11;61.50;101145.25;4978563;28;20377;-74
2021/07/29 07:50:26;;;;;;;12.18;3.03;;;;;;;19.35;60.78;101140.09;4981766;28;20066;-73
2021/07/29 07:52:54;;;;;;;11.65;3.58;;;;;;;19.45;59.93;101145.78;4979843;28;20042;-74
2021/07/29 07:55:22;;;;;;;10.15;3.22;;;;;;;19.39;60.25;101133.50;4981457;28;20327;-74
2021/07/29 07:57:53;;;;;;;8.15;3.03;;;;;;;19.53;60.69;101143.44;4979521;28;20090;-75
2021/07/29 08:00:23;;;;;;;9.20;3.10;;;;;;;19.44;59.73;101144.03;4979281;28;20083;-69
2021/07/29 08:02:50;;;;;;;11.23;3.33;;;;;;;19.76;59.27;101128.44;4981211;28;20066;-70
2021/07/29 08:05:19;;;;;;;8.88;3.33;;;;;;;19.96;58.29;101137.94;4976683;28;20277;-75
2021/07/29 08:07:46;;;;;;;7.88;3.00;;;;;;;20.47;56.20;101138.09;4980227;28;20090;-74
2021/07/29 08:10:14;;;;;;;8.02;3.08;;;;;;;20.15;56.04;101148.41;4978354;28;20065;-74
2021/07/29 08:12:42;;;;;;;8.48;2.70;;;;;;;19.29;57.38;101149.50;4977360;28;20066;-70
2021/07/29 08:15:11;;;;;;;7.55;2.80;;;;;;;19.77;57.09;101152.72;4980591;28;20066;-69
2021/07/29 08:17:40;;;;;;;10.40;3.08;;;;;;;19.54;58.25;101156.88;4979442;28;20065;-70
2021/07/29 08:20:09;;;;;;;12.32;3.47;;;;;;;19.83;57.19;101161.41;4980530;28;20915;-70
2021/07/29 08:22:37;;;;;;;9.55;2.80;;;;;;;19.92;57.76;101153.53;4979807;28;20070;-70
2021/07/29 08:25:06;;;;;;;10.77;3.30;;;;;;;19.81;58.29;101144.38;4978958;28;20074;-70
2021/07/29 08:27:35;;;;;;;8.52;2.63;;;;;;;20.11;55.86;101168.56;4980009;28;20042;-70
2021/07/29 08:30:03;;;;;;;9.45;3.80;;;;;;;20.24;53.30;101155.91;4977255;28;20137;-71
2021/07/29 08:32:31;;;;;;;8.95;2.80;;;;;;;20.58;52.51;101147.31;4980944;28;20354;-70
2021/07/29 08:35:01;;;;;;;6.57;2.53;;;;;;;20.15;52.86;101160.09;4979987;28;20065;-70
2021/07/29 08:37:29;;;;;;;9.23;2.85;;;;;;;19.78;51.25;101154.47;4981894;28;20413;-75
2021/07/29 08:39:57;;;;;;;5.28;2.78;;;;;;;20.63;52.15;101165.03;4984744;28;20051;-75
2021/07/29 08:42:26;;;;;;;9.82;3.10;;;;;;;20.64;53.07;101155.06;4981602;28;20062;-75
2021/07/29 08:44:54;;;;;;;10.63;2.60;;;;;;;21.40;52.67;101156.00;4983410;28;20254;-75
2021/07/29 08:47:24;;;;;;;12.18;3.88;;;;;;;20.57;51.87;101156.41;4981524;28;20039;-75
2021/07/29 08:50:01;;;;;;;7.88;3.03;;;;;;;21.33;51.23;101165.56;4982331;28;20484;-75
2021/07/29 08:52:34;;;;;;;7.63;2.53;;;;;;;21.38;48.35;101168.81;4979388;28;20121;-74
2021/07/29 08:55:04;;;;;;;8.35;2.58;;;;;;;21.05;48.46;101154.84;4978948;28;20057;-74
2021/07/29 08:57:33;;;;;;;7.65;2.78;;;;;;;21.57;49.70;101171.09;4982709;28;20066;-73
2021/07/29 09:00:04;;;;;;;8.45;2.97;;;;;;;21.01;49.16;101157.88;4979056;28;20145;-74
2021/07/29 09:02:32;;;;;;;8.00;3.15;;;;;;;20.73;48.12;101159.84;4979445;28;20363;-73
2021/07/29 09:05:14;;;;;;;6.40;2.58;;;;;;;21.10;47.50;101167.22;4983284;28;20116;-69
2021/07/29 09:07:46;;;;;;;11.27;2.88;;;;;;;21.08;49.65;101164.63;4978934;28;20138;-69
2021/07/29 09:10:22;;;;;;;8.23;2.80;;;;;;;20.68;49.10;101167.41;4983235;28;20140;-70
2021/07/29 09:13:12;;;;;;;5.82;2.65;;;;;;;21.02;49.03;101165.06;4978763;28;20488;-70
2021/07/29 09:15:40;;;;;;;9.95;2.67;;;;;;;20.49;49.47;101163.22;4982055;28;20065;-70
2021/07/29 09:18:09;;;;;;;11.43;2.85;;;;;;;20.33;49.56;101184.25;4977142;28;20086;-70
2021/07/29 09:20:38;;;;;;;8.63;2.80;;;;;;;20.55;47.60;101172.81;4980310;28;20066;-70
2021/07/29 09:23:15;;;;;;;8.05;3.20;;;;;;;20.94;47.94;101179.13;4979775;28;20113;-69
2021/07/29 09:25:44;;;;;;;8.20;2.65;;;;;;;21.06;48.21;101174.69;4980004;28;20054;-70
2021/07/29 09:28:12;;;;;;;7.70;2.83;;;;;;;21.11;47.85;101182.50;4980998;28;20341;-70
2021/07/29 09:30:40;;;;;;;5.15;3.13;;;;;;;20.71;49.26;101194.31;4979224;28;21142;-69
2021/07/29 09:33:11;;;;;;;9.80;2.85;;;;;;;21.21;47.92;101168.16;4983033;28;20120;-69
2021/07/29 09:35:42;;;;;;;8.50;3.05;;;;;;;21.54;47.41;101182.16;4983505;28;20142;-70
2021/07/29 09:38:22;;;;;;;8.93;2.83;;;;;;;21.64;48.94;101192.25;4980074;28;20505;-69
2021/07/29 09:40:52;;;;;;;7.43;2.70;;;;;;;21.44;48.03;101190.09;4983941;28;20116;-69
2021/07/29 09:43:21;;;;;;;7.32;2.75;;;;;;;21.48;45.82;101177.19;4981389;28;20148;-69
2021/07/29 09:45:51;;;;;;;8.15;2.40;;;;;;;22.11;45.56;101183.41;4983703;28;20140;-70
2021/07/29 09:48:21;;;;;;;5.20;2.58;;;;;;;21.05;45.75;101184.69;4981138;28;20074;-70
2021/07/29 09:50:51;;;;;;;11.02;3.15;;;;;;;21.44;46.18;101198.25;4980647;28;20097;-70
2021/07/29 09:53:23;;;;;;;12.98;3.40;;;;;;;21.36;46.09;101195.19;4983963;28;20093;-70
2021/07/29 09:55:50;;;;;;;11.23;2.72;;;;;;;21.48;45.82;101197.06;4977907;28;20345;-69
2021/07/29 09:58:18;;;;;;;9.20;2.70;;;;;;;21.53;45.03;101199.44;4980489;28;20157;-69
2021/07/29 10:00:46;;;;;;;6.07;2.40;;;;;;;21.94;45.23;101204.53;4980624;28;20902;-70
2021/07/29 10:03:16;;;;;;;8.27;2.40;;;;;;;21.88;45.60;101195.97;4979818;28;20169;-70
2021/07/29 10:05:50;;;;;;;6.18;2.60;;;;;;;21.91;43.95;101196.59;4981467;28;20400;-69
2021/07/29 10:08:31;;;;;;;7.85;2.53;;;;;;;21.54;44.17;101195.72;4978713;28;20493;-71
2021/07/29 10:11:00;;;;;;;11.43;3.33;;;;;;;22.15;44.27;101191.22;4980767;28;20070;-70
2021/07/29 10:13:36;;;;;;;7.85;2.80;;;;;;;21.99;43.33;101206.91;4979812;28;20141;-69
2021/07/29 10:16:05;;;;;;;8.50;2.60;;;;;;;22.01;44.52;101200.41;4980832;28;20129;-69
2021/07/29 10:19:03;;;;;;;11.65;2.92;;;;;;;21.53;44.42;101196.72;4982751;28;20148;-70
2021/07/29 10:21:32;;;;;;;10.45;2.90;;;;;;;21.51;44.74;101199.56;4980936;28;20145;-69
2021/07/29 10:24:02;;;;;;;9.90;3.05;;;;;;;21.72;44.79;101191.69;4982944;28;20066;-69
2021/07/29 10:26:32;;;;;;;6.85;3.20;;;;;;;21.92;45.19;101186.63;4979287;28;20154;-70
2021/07/29 10:29:23;;;;;;;7.07;2.72;;;;;;;22.46;45.03;101194.34;4981390;28;20066;-69
2021/07/29 10:31:53;;;;;;;6.57;2.58;;;;;;;22.45;43.80;101189.88;4982231;28;20069;-70
2021/07/29 10:34:26;;;;;;;8.90;3.35;;;;;;;22.12;44.97;101204.16;4982559;28;20459;-70
2021/07/29 10:36:55;;;;;;;7.68;2.75;;;;;;;21.98;44.91;101197.03;4985671;28;20066;-70
2021/07/29 10:39:25;;;;;;;7.07;2.90;;;;;;;22.00;45.19;101208.66;4980092;28;20066;-69
2021/07/29 10:41:55;;;;;;;11.10;2.90;;;;;;;21.86;45.77;101198.81;4984050;28;20039;-69
2021/07/29 10:44:48;;;;;;;6.05;2.85;;;;;;;22.08;45.37;101197.22;4980275;28;20043;-75
2021/07/29 10:47:42;;;;;;;9.30;2.88;;;;;;;22.19;44.25;101208.16;4981733;28;20133;-75
2021/07/29 10:50:20;;;;;;;7.07;3.05;;;;;;;21.90;44.63;101208.47;4977092;28;20095;-75
2021/07/29 10:52:50;;;;;;;10.07;2.83;;;;;;;22.62;44.41;101202.19;4977964;28;20108;-73
2021/07/29 10:55:21;;;;;;;7.50;2.50;;;;;;;21.92;43.16;101211.94;4984269;28;20077;-74
2021/07/29 10:58:03;;;;;;;7.55;2.65;;;;;;;21.99;42.78;101206.91;4976183;28;20067;-74
2021/07/29 11:00:31;;;;;;;6.50;2.42;;;;;;;21.89;44.13;101216.72;4981519;28;21081;-74
2021/07/29 11:03:07;;;;;;;6.45;2.40;;;;;;;22.25;41.84;101201.38;4978804;28;20070;-74
2021/07/29 11:05:40;;;;;;;8.65;2.70;;;;;;;21.85;43.19;101217.94;4981026;28;20058;-73
2021/07/29 11:08:08;;;;;;;8.27;2.70;;;;;;;22.36;43.57;101210.47;4979400;28;20062;-74
2021/07/29 11:10:39;;;;;;;9.77;2.85;;;;;;;22.67;44.48;101207.25;4975603;28;20102;-74
2021/07/29 11:13:07;;;;;;;10.45;3.10;;;;;;;22.37;43.22;101209.50;4982546;28;20069;-73
2021/07/29 11:15:38;;;;;;;10.65;2.83;;;;;;;22.08;44.17;101218.94;4980658;28;20086;-68
2021/07/29 11:18:16;;;;;;;7.38;2.67;;;;;;;22.89;44.98;101215.47;4980683;28;20072;-68
2021/07/29 11:20:44;;;;;;;11.85;2.83;;;;;;;22.71;45.98;101215.06;4980934;28;20097;-68
2021/07/29 11:23:14;;;;;;;9.77;3.08;;;;;;;22.44;44.88;101211.75;4980624;28;20080;-68
2021/07/29 11:26:01;;;;;;;8.65;2.90;;;;;;;23.25;46.03;101212.72;4982802;28;20453;-68
2021/07/29 11:28:28;;;;;;;11.50;3.75;;;;;;;22.14;47.60;101221.22;4978670;28;20051;-69
2021/07/29 11:31:17;;;;;;;10.02;2.90;;;;;;;23.07;46.61;101215.94;4981535;28;20483;-68
2021/07/29 11:33:49;;;;;;;12.23;3.05;;;;;;;22.97;47.23;101219.44;4977779;28;20061;-68